Time;durP1;ratioP1;P1;durP2;ratioP2;P2;SDS_P1;SDS_P2;PMS_P1;PMS_P2;Temp;Humidity;BMP_temperature;BMP_pressure;BME280_temperature;BME280_humidity;BME280_pressure;Samples;Min_cycle;Max_cycle;Signal;HPM_P1;HPM_P2
2021/12/20 00:01:13;;;;;;;23.30;4.60;;;7.60;75.40;;;;;;4937563;28;95198;-78
2021/12/20 00:03:40;;;;;;;20.52;4.05;;;7.50;75.70;;;;;;4951972;28;94910;-78
2021/12/20 00:06:07;;;;;;;24.42;4.10;;;7.40;76.20;;;;;;4938076;28;92546;-78
2021/12/20 00:08:36;;;;;;;24.33;3.42;;;7.30;76.50;;;;;;4937790;28;93277;-78
2021/12/20 00:11:04;;;;;;;25.42;5.28;;;7.30;76.70;;;;;;4937244;28;102624;-78
2021/12/20 00:13:30;;;;;;;27.33;4.55;;;7.20;77.20;;;;;;4936701;28;92419;-78
2021/12/20 00:15:58;;;;;;;23.73;3.92;;;7.20;77.40;;;;;;4937740;28;92455;-78
2021/12/20 00:18:25;;;;;;;23.75;4.13;;;7.10;77.50;;;;;;4935716;28;93072;-77
2021/12/20 00:20:52;;;;;;;22.48;4.22;;;7.10;77.60;;;;;;4957497;28;92731;-78
2021/12/20 00:23:19;;;;;;;22.58;3.58;;;7.00;78.10;;;;;;4957058;28;92808;-78
2021/12/20 00:25:48;;;;;;;24.05;4.10;;;6.90;78.30;;;;;;4957330;28;92407;-78
2021/12/20 00:28:17;;;;;;;24.98;3.95;;;6.90;78.40;;;;;;4968881;28;96468;-78
2021/12/20 00:30:45;;;;;;;23.33;3.80;;;6.80;78.30;;;;;;4956798;28;98921;-78
2021/12/20 00:33:13;;;;;;;21.35;4.45;;;6.80;78.50;;;;;;4972112;28;92469;-78
2021/12/20 00:35:40;;;;;;;23.70;3.67;;;6.70;78.70;;;;;;4956069;28;92544;-78
2021/12/20 00:41:06;;;;;;;21.20;3.97;;;6.70;78.90;;;;;;4955480;28;98983;-78
2021/12/20 00:43:33;;;;;;;21.98;4.65;;;6.60;79.30;;;;;;4955429;28;92629;-78
2021/12/20 00:46:00;;;;;;;20.13;3.42;;;6.60;79.40;;;;;;4957373;28;92570;-78
2021/12/20 00:48:27;;;;;;;22.17;3.70;;;6.60;79.40;;;;;;4955144;28;95978;-78
2021/12/20 00:50:54;;;;;;;13.07;3.50;;;6.60;79.30;;;;;;4971346;28;103201;-78
2021/12/20 00:53:22;;;;;;;15.75;3.17;;;6.60;79.30;;;;;;4955480;28;94767;-78
2021/12/20 00:55:49;;;;;;;18.48;3.33;;;6.60;79.30;;;;;;4971570;28;92976;-78
2021/12/20 00:58:16;;;;;;;26.00;3.75;;;6.60;79.20;;;;;;4956293;28;93118;-78
2021/12/20 01:00:51;;;;;;;20.75;3.85;;;6.50;79.20;;;;;;4956494;28;92863;-78
2021/12/20 01:03:19;;;;;;;22.13;3.50;;;6.50;79.10;;;;;;4956649;28;92379;-78
2021/12/20 01:05:47;;;;;;;18.85;3.58;;;6.50;79.30;;;;;;4956669;28;92937;-78
2021/12/20 01:08:15;;;;;;;21.60;3.60;;;6.40;79.40;;;;;;4956440;28;92450;-78
2021/12/20 01:10:45;;;;;;;31.85;4.00;;;6.40;79.40;;;;;;4955087;28;95314;-78
2021/12/20 01:13:16;;;;;;;23.63;3.53;;;6.40;79.50;;;;;;4956673;28;92427;-78
2021/12/20 01:15:50;;;;;;;14.48;3.33;;;6.40;79.60;;;;;;4955338;28;92489;-78
2021/12/20 01:18:17;;;;;;;;;;;6.40;79.70;;;;;;4969805;28;95488;-78
2021/12/20 01:20:44;;;;;;;20.67;2.88;;;6.30;79.80;;;;;;4939110;28;105311;-78
2021/12/20 01:23:12;;;;;;;24.83;3.45;;;6.20;80.20;;;;;;4971609;28;92547;-78
2021/12/20 01:25:40;;;;;;;27.85;4.18;;;6.20;80.20;;;;;;4956118;28;93282;-78
2021/12/20 01:28:09;;;;;;;21.70;4.03;;;6.10;80.10;;;;;;4954872;28;93029;-78
2021/12/20 01:30:37;;;;;;;25.33;3.90;;;6.10;80.30;;;;;;4954536;28;97535;-78
2021/12/20 01:33:08;;;;;;;21.38;3.88;;;6.10;80.40;;;;;;4956327;28;92595;-69
2021/12/20 01:35:36;;;;;;;23.73;3.88;;;6.10;80.60;;;;;;4955217;28;91753;-70
2021/12/20 01:38:04;;;;;;;20.27;3.65;;;6.00;80.70;;;;;;4956076;28;93106;-69
2021/12/20 01:40:32;;;;;;;22.83;3.03;;;6.00;80.80;;;;;;4953905;28;95547;-70
2021/12/20 01:42:59;;;;;;;25.15;4.05;;;5.90;81.00;;;;;;4955208;28;95410;-70
2021/12/20 01:45:27;;;;;;;26.30;4.03;;;5.90;81.10;;;;;;4954384;28;92499;-70
2021/12/20 01:48:04;;;;;;;22.17;3.72;;;5.90;81.30;;;;;;4954366;28;94315;-69
2021/12/20 01:50:50;;;;;;;22.27;3.65;;;5.80;81.30;;;;;;4954292;28;94177;-69
2021/12/20 01:53:23;;;;;;;28.02;4.70;;;5.80;81.40;;;;;;4954798;28;92476;-69
2021/12/20 01:55:52;;;;;;;23.07;4.30;;;5.70;81.60;;;;;;4954984;28;92441;-70
2021/12/20 01:58:19;;;;;;;24.30;4.05;;;5.70;81.80;;;;;;4955868;28;93245;-69
2021/12/20 02:03:34;;;;;;;19.50;3.35;;;5.60;82.00;;;;;;4954917;28;92443;-70
2021/12/20 02:06:06;;;;;;;23.08;4.57;;;5.50;82.10;;;;;;4955424;28;92527;-78
2021/12/20 02:08:33;;;;;;;21.80;2.85;;;5.50;82.10;;;;;;4954304;28;95440;-78
2021/12/20 02:11:05;;;;;;;21.20;3.42;;;5.50;82.30;;;;;;4955069;28;110450;-78
2021/12/20 02:13:33;;;;;;;23.40;4.40;;;5.40;82.30;;;;;;4955670;28;92357;-78
2021/12/20 02:16:01;;;;;;;16.77;2.95;;;5.40;82.40;;;;;;4955665;28;93934;-78
2021/12/20 02:18:30;;;;;;;21.23;3.70;;;5.30;82.50;;;;;;4955486;28;93082;-78
2021/12/20 02:20:58;;;;;;;21.65;3.83;;;5.30;82.70;;;;;;4955458;28;92549;-78
2021/12/20 02:23:26;;;;;;;18.23;3.55;;;5.30;82.90;;;;;;4955687;28;92504;-78
2021/12/20 02:25:53;;;;;;;24.02;3.53;;;5.20;83.00;;;;;;4954661;28;91874;-78
2021/12/20 02:28:21;;;;;;;27.35;4.13;;;5.20;83.10;;;;;;4955501;28;92988;-78
2021/12/20 02:38:48;;;;;;;22.98;3.22;;;5.10;83.40;;;;;;4955323;28;92988;-78
2021/12/20 02:41:30;;;;;;;17.92;3.00;;;5.10;83.40;;;;;;4955218;28;92774;-78
2021/12/20 02:44:03;;;;;;;22.33;3.45;;;5.20;83.30;;;;;;4955688;28;92813;-78
2021/12/20 02:49:05;;;;;;;20.33;3.30;;;5.10;83.20;;;;;;4955379;28;92924;-78
2021/12/20 02:51:33;;;;;;;22.85;3.78;;;5.10;83.10;;;;;;4955845;28;94712;-78
2021/12/20 02:54:02;;;;;;;17.98;3.85;;;5.10;83.20;;;;;;4958695;28;92485;-78
2021/12/20 02:56:29;;;;;;;19.52;3.63;;;5.10;83.30;;;;;;4958389;28;92435;-78
2021/12/20 02:58:56;;;;;;;21.05;4.07;;;5.00;83.30;;;;;;4956967;28;95487;-78
2021/12/20 03:01:24;;;;;;;22.92;4.05;;;5.00;83.40;;;;;;4956746;28;96522;-78
2021/12/20 03:03:53;;;;;;;19.92;3.90;;;4.90;83.40;;;;;;4956791;28;92443;-78
2021/12/20 03:06:26;;;;;;;24.17;3.33;;;4.90;83.50;;;;;;4958231;28;92451;-70
2021/12/20 03:08:55;;;;;;;18.85;3.22;;;4.80;83.60;;;;;;4958126;28;93123;-69
2021/12/20 03:11:25;;;;;;;18.88;3.13;;;4.80;83.70;;;;;;4957736;28;95060;-69
2021/12/20 03:14:05;;;;;;;22.25;3.55;;;4.80;83.80;;;;;;4956826;28;92449;-70
2021/12/20 03:16:34;;;;;;;21.73;3.83;;;4.80;83.90;;;;;;4958586;28;91732;-70
2021/12/20 03:19:03;;;;;;;16.83;3.00;;;4.70;83.90;;;;;;4955589;28;108025;-78
2021/12/20 03:21:31;;;;;;;29.50;4.25;;;4.70;83.90;;;;;;4958040;28;96072;-78
2021/12/20 03:23:58;;;;;;;17.88;3.38;;;4.60;83.90;;;;;;4957028;28;94820;-78
2021/12/20 03:26:25;;;;;;;23.52;4.50;;;4.60;84.00;;;;;;4958024;28;92454;-78
2021/12/20 03:28:52;;;;;;;24.35;3.30;;;4.60;84.20;;;;;;4957996;28;93074;-78
2021/12/20 03:31:19;;;;;;;21.60;3.13;;;4.50;84.40;;;;;;4958031;28;92879;-78
2021/12/20 03:33:46;;;;;;;20.85;3.95;;;4.50;84.50;;;;;;4957824;28;92431;-78
2021/12/20 03:36:13;;;;;;;15.63;3.20;;;4.50;84.60;;;;;;4956418;28;92485;-78
2021/12/20 03:38:40;;;;;;;20.63;3.92;;;4.40;84.70;;;;;;4957630;28;93015;-78
2021/12/20 03:41:08;;;;;;;18.35;3.60;;;4.40;84.80;;;;;;4973204;28;92847;-78
2021/12/20 03:43:35;;;;;;;16.52;3.35;;;4.40;85.10;;;;;;4956642;28;92531;-78
2021/12/20 03:46:03;;;;;;;18.63;3.33;;;4.30;85.00;;;;;;4956647;28;92939;-78
2021/12/20 03:48:30;;;;;;;24.33;3.45;;;4.30;85.00;;;;;;4956231;28;95583;-78
2021/12/20 03:51:01;;;;;;;26.02;3.85;;;4.30;85.00;;;;;;4956527;28;116886;-78
2021/12/20 03:53:30;;;;;;;19.33;3.60;;;4.30;85.10;;;;;;4958003;28;92452;-78
2021/12/20 03:55:57;;;;;;;22.10;3.47;;;4.20;85.30;;;;;;4956346;28;92647;-78
2021/12/20 03:58:27;;;;;;;27.77;3.60;;;4.20;85.40;;;;;;4957473;28;92967;-78
2021/12/20 04:00:58;;;;;;;22.55;3.53;;;4.20;85.40;;;;;;4956995;28;92748;-78
2021/12/20 04:03:28;;;;;;;16.88;3.63;;;4.20;85.30;;;;;;4957051;28;92455;-78
2021/12/20 04:05:56;;;;;;;22.48;3.83;;;4.20;85.30;;;;;;4972049;28;91686;-78
2021/12/20 04:08:23;;;;;;;24.77;3.95;;;4.10;86.00;;;;;;4957288;28;92380;-78
2021/12/20 04:10:51;;;;;;;20.27;3.70;;;4.10;85.50;;;;;;4956882;28;92773;-78
2021/12/20 04:13:18;;;;;;;18.02;3.47;;;4.10;85.50;;;;;;4955238;28;95054;-78
2021/12/20 04:15:45;;;;;;;18.63;3.15;;;4.00;85.40;;;;;;4955668;28;92472;-78
2021/12/20 04:18:12;;;;;;;14.13;2.67;;;4.00;85.20;;;;;;4957562;28;93006;-78
2021/12/20 04:20:39;;;;;;;24.05;3.70;;;4.00;85.10;;;;;;4955242;28;95226;-78
2021/12/20 04:23:06;;;;;;;17.05;3.22;;;4.00;85.30;;;;;;4957087;28;92427;-78
2021/12/20 04:25:33;;;;;;;16.90;3.08;;;3.90;85.20;;;;;;4957224;28;92439;-78
2021/12/20 04:28:00;;;;;;;15.82;3.03;;;3.90;85.10;;;;;;4956674;28;93074;-78
2021/12/20 04:30:30;;;;;;;19.65;3.78;;;3.90;85.00;;;;;;4957439;28;92894;-78
2021/12/20 04:32:58;;;;;;;16.25;3.30;;;3.90;85.20;;;;;;4971604;28;92524;-78
2021/12/20 04:35:24;;;;;;;21.67;4.22;;;3.80;85.30;;;;;;4957048;28;92507;-78
2021/12/20 04:37:53;;;;;;;13.70;3.15;;;3.80;85.50;;;;;;4970206;28;95473;-78
2021/12/20 04:40:22;;;;;;;16.25;3.60;;;3.80;86.00;;;;;;4956782;28;95408;-78
2021/12/20 04:42:52;;;;;;;17.08;3.22;;;3.80;85.50;;;;;;4956597;28;92495;-78
2021/12/20 04:45:20;;;;;;;24.20;3.53;;;3.80;85.60;;;;;;4957192;28;92454;-78
2021/12/20 04:47:47;;;;;;;15.75;3.33;;;3.70;85.70;;;;;;4955446;28;95593;-78
2021/12/20 04:50:14;;;;;;;22.48;3.97;;;3.70;85.60;;;;;;4971804;28;92940;-78
2021/12/20 04:52:42;;;;;;;23.48;2.97;;;3.70;85.50;;;;;;4956953;28;92401;-69
2021/12/20 04:55:10;;;;;;;19.65;3.72;;;3.60;85.40;;;;;;4957187;28;92214;-69
2021/12/20 04:57:38;;;;;;;18.73;3.20;;;3.60;85.80;;;;;;4956351;28;97775;-69
2021/12/20 05:00:09;;;;;;;15.18;3.42;;;3.60;86.00;;;;;;4956475;28;92875;-70
2021/12/20 05:02:36;;;;;;;21.35;3.60;;;3.50;86.00;;;;;;4955827;28;94854;-70
2021/12/20 05:05:04;;;;;;;27.13;3.88;;;3.50;86.10;;;;;;4956495;28;92430;-69
2021/12/20 05:07:31;;;;;;;27.40;3.45;;;3.50;86.30;;;;;;4956349;28;93041;-69
2021/12/20 05:10:01;;;;;;;30.38;4.13;;;3.50;86.40;;;;;;4956328;28;93276;-70
2021/12/20 05:12:28;;;;;;;17.05;3.60;;;3.40;86.30;;;;;;4955575;28;92616;-78
2021/12/20 05:14:55;;;;;;;27.80;4.13;;;3.40;86.80;;;;;;4954010;28;93994;-78
2021/12/20 05:17:23;;;;;;;23.27;3.63;;;3.40;86.40;;;;;;4956294;28;93936;-70
2021/12/20 05:19:50;;;;;;;22.05;4.32;;;3.40;86.50;;;;;;4954653;28;95450;-69
2021/12/20 05:22:17;;;;;;;21.48;3.40;;;3.40;86.50;;;;;;4955176;28;92890;-78
2021/12/20 05:24:44;;;;;;;17.92;4.57;;;3.40;86.40;;;;;;4956480;28;92460;-78
2021/12/20 05:27:11;;;;;;;20.27;5.97;;;3.40;86.40;;;;;;4953369;28;96543;-78
2021/12/20 05:29:38;;;;;;;22.42;5.47;;;3.30;86.30;;;;;;4956264;28;95232;-78
2021/12/20 05:32:06;;;;;;;19.33;3.55;;;3.30;86.40;;;;;;4954874;28;92927;-78
2021/12/20 05:34:35;;;;;;;28.52;4.00;;;3.30;86.50;;;;;;4954963;28;92428;-78
2021/12/20 05:37:02;;;;;;;18.25;3.85;;;3.30;86.50;;;;;;4955887;28;93126;-78
2021/12/20 05:39:29;;;;;;;19.75;4.00;;;3.30;86.60;;;;;;4956036;28;92867;-78
2021/12/20 05:41:56;;;;;;;17.05;3.80;;;3.20;86.50;;;;;;4956062;28;99259;-78
2021/12/20 05:44:23;;;;;;;19.98;3.58;;;3.20;86.60;;;;;;4956605;28;91833;-78
2021/12/20 05:46:52;;;;;;;20.00;3.33;;;3.20;86.60;;;;;;4971373;28;93115;-78
2021/12/20 05:49:19;;;;;;;19.65;3.63;;;3.20;86.40;;;;;;4954270;28;94348;-78
2021/12/20 05:51:46;;;;;;;23.02;5.25;;;3.10;86.30;;;;;;4955128;28;94850;-78
2021/12/20 05:54:14;;;;;;;23.23;7.10;;;3.10;86.20;;;;;;4956132;28;92900;-78
2021/12/20 05:56:41;;;;;;;25.25;4.85;;;3.10;86.00;;;;;;4955733;28;93078;-78
2021/12/20 05:59:08;;;;;;;26.67;5.75;;;3.10;86.30;;;;;;4955638;28;93076;-78
2021/12/20 06:01:35;;;;;;;22.33;4.38;;;3.10;86.40;;;;;;4971063;28;92569;-78
2021/12/20 06:04:02;;;;;;;14.35;4.88;;;3.10;86.40;;;;;;4954917;28;107228;-78
2021/12/20 06:06:31;;;;;;;24.48;4.85;;;3.00;86.40;;;;;;4953824;28;94110;-78
2021/12/20 06:08:58;;;;;;;24.35;5.47;;;3.00;86.30;;;;;;4955958;28;92925;-78
2021/12/20 06:11:25;;;;;;;24.15;4.82;;;3.00;86.10;;;;;;4954774;28;92486;-78
2021/12/20 06:13:52;;;;;;;16.05;4.57;;;3.00;86.10;;;;;;4956312;28;92744;-78
2021/12/20 06:16:19;;;;;;;27.80;5.05;;;2.90;85.90;;;;;;4954152;28;95540;-78
2021/12/20 06:18:46;;;;;;;19.17;4.78;;;2.90;85.70;;;;;;4954375;28;98155;-70
2021/12/20 06:21:13;;;;;;;22.60;4.28;;;2.80;85.90;;;;;;4955248;28;92448;-69
2021/12/20 06:23:40;;;;;;;20.67;4.80;;;2.80;85.70;;;;;;4955753;28;92925;-69
2021/12/20 06:26:07;;;;;;;26.45;4.47;;;2.80;85.70;;;;;;4956710;28;97469;-69
2021/12/20 06:28:34;;;;;;;26.77;6.22;;;2.80;85.90;;;;;;4958866;28;92770;-69
2021/12/20 06:31:02;;;;;;;40.38;12.15;;;2.80;85.90;;;;;;4959163;28;92368;-78
2021/12/20 06:33:29;;;;;;;33.78;12.48;;;2.70;85.80;;;;;;4973850;28;91830;-78
2021/12/20 06:35:56;;;;;;;26.60;8.40;;;2.70;85.90;;;;;;4958027;28;93107;-78
2021/12/20 06:38:23;;;;;;;29.23;6.03;;;2.70;86.00;;;;;;4956954;28;94196;-78
2021/12/20 06:40:51;;;;;;;28.40;10.43;;;2.60;85.90;;;;;;4956252;28;94860;-78
2021/12/20 06:43:19;;;;;;;31.40;9.35;;;2.70;85.90;;;;;;4958041;28;92433;-78
2021/12/20 06:45:46;;;;;;;26.70;8.73;;;2.60;86.00;;;;;;4958608;28;92467;-78
2021/12/20 06:48:13;;;;;;;21.77;6.45;;;2.60;86.10;;;;;;4957188;28;92768;-78
2021/12/20 06:50:40;;;;;;;24.05;6.00;;;2.50;85.80;;;;;;4958942;28;92357;-78
2021/12/20 06:53:08;;;;;;;19.63;5.50;;;2.50;85.70;;;;;;4958237;28;92520;-78
2021/12/20 06:55:36;;;;;;;18.38;4.57;;;2.50;85.50;;;;;;4957260;28;95216;-78
2021/12/20 06:58:04;;;;;;;25.10;5.57;;;2.50;85.40;;;;;;4957358;28;92853;-78
2021/12/20 07:00:32;;;;;;;24.02;5.88;;;2.40;85.60;;;;;;4957154;28;92555;-78
2021/12/20 07:02:59;;;;;;;30.98;5.68;;;2.40;86.00;;;;;;4958421;28;92395;-78
2021/12/20 07:05:26;;;;;;;23.45;6.95;;;2.30;86.10;;;;;;4956671;28;95591;-69
2021/12/20 07:07:53;;;;;;;20.35;6.05;;;2.30;86.00;;;;;;4956918;28;95211;-69
2021/12/20 07:10:21;;;;;;;19.10;4.10;;;2.30;86.30;;;;;;4956133;28;102206;-69
2021/12/20 07:12:48;;;;;;;19.60;4.57;;;2.30;86.00;;;;;;4958405;28;92433;-78
2021/12/20 07:15:15;;;;;;;19.27;4.07;;;2.20;85.60;;;;;;4956462;28;95652;-69
2021/12/20 07:17:43;;;;;;;12.40;3.50;;;2.20;85.30;;;;;;4958252;28;92959;-70
2021/12/20 07:20:11;;;;;;;20.70;4.18;;;2.10;85.30;;;;;;4957752;28;92524;-69
2021/12/20 07:22:38;;;;;;;18.13;3.85;;;2.10;85.40;;;;;;4956997;28;91678;-69
2021/12/20 07:25:05;;;;;;;19.75;4.38;;;2.10;85.40;;;;;;4958099;28;93004;-69
2021/12/20 07:27:32;;;;;;;30.13;7.75;;;2.00;85.30;;;;;;4957682;28;92725;-69
2021/12/20 07:29:59;;;;;;;29.23;9.35;;;2.00;85.50;;;;;;4956840;28;94978;-69
2021/12/20 07:32:26;;;;;;;21.92;4.90;;;2.00;85.60;;;;;;4957575;28;92427;-69
2021/12/20 07:34:53;;;;;;;27.95;4.97;;;2.00;85.70;;;;;;4972958;28;93098;-69
2021/12/20 07:37:21;;;;;;;21.30;4.05;;;2.00;85.80;;;;;;4956088;28;107515;-69
2021/12/20 07:39:48;;;;;;;20.52;4.15;;;2.00;85.90;;;;;;4958212;28;93334;-69
2021/12/20 07:42:15;;;;;;;26.70;4.82;;;2.00;86.00;;;;;;4957271;28;92810;-69
2021/12/20 07:44:43;;;;;;;28.30;4.15;;;1.90;85.80;;;;;;4957546;28;93066;-69
2021/12/20 07:47:10;;;;;;;18.23;4.28;;;1.90;85.90;;;;;;4972947;28;92731;-69
2021/12/20 07:49:37;;;;;;;24.88;3.75;;;1.90;85.70;;;;;;4956212;28;92532;-69
2021/12/20 07:52:04;;;;;;;16.27;3.85;;;1.90;85.60;;;;;;4957696;28;92470;-70
2021/12/20 07:54:31;;;;;;;13.68;3.75;;;1.80;85.70;;;;;;4954803;28;95492;-69
2021/12/20 07:56:58;;;;;;;17.77;3.97;;;1.90;85.80;;;;;;4957454;28;95120;-69
2021/12/20 07:59:25;;;;;;;16.17;3.63;;;1.90;85.60;;;;;;4957512;28;92812;-70
2021/12/20 08:01:52;;;;;;;16.10;3.72;;;1.80;85.50;;;;;;4957299;28;92431;-69
2021/12/20 08:04:21;;;;;;;24.00;4.80;;;1.90;85.50;;;;;;4957082;28;93151;-70
2021/12/20 08:06:49;;;;;;;26.80;4.07;;;1.90;85.50;;;;;;4939746;28;95520;-69
2021/12/20 08:09:16;;;;;;;25.45;7.72;;;1.80;85.40;;;;;;4956343;28;92489;-69
2021/12/20 08:11:44;;;;;;;24.52;6.40;;;1.80;85.50;;;;;;4957432;28;91711;-69
2021/12/20 08:14:11;;;;;;;29.48;6.68;;;1.90;85.60;;;;;;4957055;28;93140;-69
2021/12/20 08:16:38;;;;;;;25.70;4.85;;;1.90;85.60;;;;;;4955680;28;95473;-69
2021/12/20 08:19:05;;;;;;;22.10;5.60;;;1.90;85.70;;;;;;4955764;28;94913;-69
2021/12/20 08:21:32;;;;;;;23.17;5.38;;;1.90;85.80;;;;;;4956444;28;92880;-69
2021/12/20 08:23:59;;;;;;;15.95;4.90;;;2.00;85.80;;;;;;4955517;28;94224;-69
2021/12/20 08:26:26;;;;;;;19.58;4.47;;;2.00;85.70;;;;;;4956791;28;92795;-69
2021/12/20 08:28:56;;;;;;;26.55;5.25;;;2.00;85.70;;;;;;4971578;28;92529;-69
2021/12/20 08:31:23;;;;;;;15.98;4.10;;;2.00;85.60;;;;;;4956966;28;92440;-69
2021/12/20 08:33:50;;;;;;;19.83;4.85;;;2.10;85.50;;;;;;4957204;28;92456;-70
2021/12/20 08:36:18;;;;;;;17.92;4.70;;;2.10;85.40;;;;;;4957327;28;92818;-69
2021/12/20 08:38:45;;;;;;;10.88;4.90;;;2.10;85.40;;;;;;4956677;28;92408;-69
2021/12/20 08:41:13;;;;;;;13.35;4.68;;;2.20;85.30;;;;;;4957030;28;92484;-69
2021/12/20 08:43:40;;;;;;;15.73;3.75;;;2.20;85.30;;;;;;4953926;28;98147;-69
2021/12/20 08:46:09;;;;;;;12.20;3.88;;;2.30;85.40;;;;;;4956731;28;94744;-78
2021/12/20 08:48:37;;;;;;;14.55;3.88;;;2.30;85.40;;;;;;4956156;28;92476;-78
2021/12/20 08:51:04;;;;;;;15.77;5.53;;;2.40;85.40;;;;;;4956158;28;92462;-78
2021/12/20 08:53:32;;;;;;;22.38;5.00;;;2.40;85.40;;;;;;4955984;28;102936;-79
2021/12/20 08:56:00;;;;;;;16.65;5.55;;;2.50;85.30;;;;;;4956759;28;94543;-78
2021/12/20 08:58:27;;;;;;;25.25;8.73;;;2.50;85.80;;;;;;4956304;28;92430;-78
2021/12/20 09:00:55;;;;;;;39.47;8.98;;;2.60;85.10;;;;;;4955655;28;91723;-78
2021/12/20 09:03:22;;;;;;;22.17;8.07;;;2.60;85.20;;;;;;4954984;28;94115;-78
2021/12/20 09:05:50;;;;;;;26.25;7.25;;;2.60;85.10;;;;;;4955946;28;95547;-78
2021/12/20 09:08:19;;;;;;;17.10;7.03;;;2.70;85.50;;;;;;4955482;28;95280;-78
2021/12/20 09:10:46;;;;;;;23.70;7.53;;;2.80;85.70;;;;;;4956347;28;92438;-78
2021/12/20 09:13:14;;;;;;;25.42;7.80;;;2.80;85.40;;;;;;4956288;28;93186;-78
2021/12/20 09:15:41;;;;;;;22.05;7.20;;;2.90;85.30;;;;;;4955956;28;92778;-78
2021/12/20 09:18:09;;;;;;;14.35;6.13;;;2.90;85.00;;;;;;4955776;28;101570;-70
2021/12/20 09:20:37;;;;;;;17.88;6.80;;;2.90;84.90;;;;;;4955239;28;92893;-69
2021/12/20 09:23:07;;;;;;;17.77;8.35;;;3.00;84.90;;;;;;4956117;28;93135;-70
2021/12/20 09:25:36;;;;;;;15.25;7.93;;;3.10;84.90;;;;;;4956168;28;92871;-69
2021/12/20 09:28:08;;;;;;;14.88;7.32;;;3.10;85.00;;;;;;4954981;28;92710;-69
2021/12/20 09:30:37;;;;;;;14.20;6.75;;;3.20;85.00;;;;;;4955980;28;92558;-70
2021/12/20 09:33:04;;;;;;;16.60;6.75;;;3.20;85.10;;;;;;4953224;28;96794;-70
2021/12/20 09:35:33;;;;;;;13.90;7.75;;;3.30;85.00;;;;;;4955669;28;95236;-69
2021/12/20 09:38:05;;;;;;;12.40;5.90;;;3.30;85.00;;;;;;4955912;28;92445;-70
2021/12/20 09:40:36;;;;;;;16.25;6.90;;;3.40;85.10;;;;;;4956229;28;92462;-70
2021/12/20 09:43:13;;;;;;;13.13;6.13;;;3.50;85.40;;;;;;4954523;28;95579;-70
2021/12/20 09:45:45;;;;;;;13.05;6.60;;;3.50;85.30;;;;;;4955861;28;92681;-69
2021/12/20 09:48:12;;;;;;;16.17;6.72;;;3.60;85.40;;;;;;4954711;28;92591;-69
2021/12/20 09:50:40;;;;;;;12.32;6.10;;;3.70;85.40;;;;;;4956115;28;91685;-70
2021/12/20 09:53:07;;;;;;;12.05;5.78;;;3.70;85.40;;;;;;4955889;28;97013;-70
2021/12/20 09:55:35;;;;;;;10.77;5.75;;;3.80;85.50;;;;;;4955555;28;92798;-70
2021/12/20 09:58:04;;;;;;;12.32;5.72;;;3.90;85.60;;;;;;4954444;28;95328;-70
2021/12/20 10:00:33;;;;;;;13.18;6.10;;;4.00;85.40;;;;;;4956494;28;92443;-69
2021/12/20 10:03:00;;;;;;;14.60;6.78;;;4.00;85.40;;;;;;4959131;28;97894;-70
2021/12/20 10:05:28;;;;;;;16.35;6.50;;;4.10;85.30;;;;;;4959042;28;93001;-70
2021/12/20 10:07:56;;;;;;;15.50;5.43;;;4.20;85.40;;;;;;4959051;28;92347;-70
2021/12/20 10:10:46;;;;;;;16.35;6.00;;;4.30;85.40;;;;;;4959169;28;92440;-69
2021/12/20 10:13:33;;;;;;;19.63;6.22;;;4.40;85.40;;;;;;4959150;28;93146;-79
2021/12/20 10:16:04;;;;;;;15.90;6.72;;;4.50;85.50;;;;;;4959751;28;92740;-78
2021/12/20 10:18:35;;;;;;;22.85;6.15;;;4.50;85.60;;;;;;4959325;28;92460;-78
2021/12/20 10:21:03;;;;;;;14.95;6.13;;;4.60;85.70;;;;;;4958211;28;92444;-78
2021/12/20 10:23:40;;;;;;;19.58;6.55;;;4.70;85.80;;;;;;4957640;28;96014;-78
2021/12/20 10:26:19;;;;;;;19.73;6.93;;;4.80;85.50;;;;;;4958736;28;95248;-78
2021/12/20 10:28:52;;;;;;;22.48;8.13;;;4.90;85.60;;;;;;4959252;28;92420;-78
2021/12/20 10:31:25;;;;;;;22.58;8.10;;;4.90;85.40;;;;;;4959034;28;92610;-78
2021/12/20 10:33:57;;;;;;;19.10;7.80;;;5.00;85.50;;;;;;4958667;28;93147;-78
2021/12/20 10:36:25;;;;;;;24.50;7.60;;;5.10;85.50;;;;;;4973823;28;93985;-78
2021/12/20 10:38:56;;;;;;;14.63;7.07;;;5.10;85.20;;;;;;4958400;28;92367;-78
2021/12/20 10:41:34;;;;;;;16.92;6.78;;;5.20;85.20;;;;;;4957735;28;96723;-78
2021/12/20 10:44:14;;;;;;;11.90;5.03;;;5.20;85.20;;;;;;4958204;28;92543;-78
2021/12/20 10:46:53;;;;;;;17.13;5.38;;;5.20;84.90;;;;;;4958365;28;92829;-78
2021/12/20 10:49:26;;;;;;;14.38;5.00;;;5.30;84.90;;;;;;4957936;28;94822;-78
2021/12/20 10:51:54;;;;;;;13.43;4.90;;;5.40;84.70;;;;;;4958624;28;92453;-78
2021/12/20 10:54:29;;;;;;;14.85;6.55;;;5.40;84.50;;;;;;4958350;28;92460;-79
2021/12/20 10:56:57;;;;;;;14.57;6.20;;;5.40;84.40;;;;;;4958234;28;92736;-78
2021/12/20 10:59:28;;;;;;;14.85;6.15;;;5.50;84.20;;;;;;4957096;28;92628;-70
2021/12/20 11:03:01;;;;;;;19.85;7.25;;;5.50;83.90;;;;;;4957862;28;93998;-69
2021/12/20 11:04:59;;;;;;;16.58;8.00;;;5.50;84.00;;;;;;4957609;28;93067;-70
2021/12/20 11:10:11;;;;;;;16.30;8.15;;;5.50;83.60;;;;;;4958480;28;92467;-70
2021/12/20 11:12:38;;;;;;;13.30;7.65;;;5.50;83.20;;;;;;4972434;28;92518;-70
2021/12/20 11:15:09;;;;;;;11.82;7.22;;;5.50;83.10;;;;;;4956456;28;95441;-70
2021/12/20 11:17:42;;;;;;;14.00;6.38;;;5.50;83.40;;;;;;4956830;28;98010;-70
2021/12/20 11:20:09;;;;;;;10.07;6.15;;;5.60;83.30;;;;;;4958149;28;92460;-78
2021/12/20 11:22:36;;;;;;;16.30;6.43;;;5.60;83.10;;;;;;4973142;28;93075;-78
2021/12/20 11:25:06;;;;;;;10.02;4.82;;;5.60;82.80;;;;;;4956315;28;95710;-78
2021/12/20 11:27:35;;;;;;;8.32;5.55;;;5.70;82.80;;;;;;4957997;28;93509;-78
2021/12/20 11:30:14;;;;;;;8.63;5.00;;;5.70;82.70;;;;;;4957566;28;92371;-78
2021/12/20 11:32:42;;;;;;;8.00;4.55;;;5.80;82.50;;;;;;4957249;28;91710;-78
2021/12/20 11:35:14;;;;;;;4.28;3.78;;;5.80;82.20;;;;;;4958175;28;93034;-78
2021/12/20 11:37:42;;;;;;;6.90;4.00;;;5.90;81.80;;;;;;4957108;28;114463;-78
2021/12/20 11:40:11;;;;;;;8.63;4.50;;;5.90;82.00;;;;;;4956640;28;94896;-78
2021/12/20 11:42:38;;;;;;;6.13;4.20;;;6.00;81.80;;;;;;4957966;28;92427;-78
2021/12/20 11:45:08;;;;;;;4.68;3.97;;;6.00;81.50;;;;;;4957756;28;92955;-78
2021/12/20 11:47:36;;;;;;;5.65;3.97;;;6.10;81.80;;;;;;4957525;28;92802;-78
2021/12/20 11:50:13;;;;;;;7.15;4.10;;;6.10;81.70;;;;;;4957579;28;92355;-78
2021/12/20 11:52:42;;;;;;;8.95;3.90;;;6.20;81.50;;;;;;4957972;28;92399;-78
2021/12/20 11:55:17;;;;;;;5.68;3.80;;;6.20;81.30;;;;;;4957380;28;93211;-70
2021/12/20 11:57:55;;;;;;;5.65;3.40;;;6.30;81.10;;;;;;4956851;28;92868;-70
2021/12/20 12:00:37;;;;;;;10.60;4.55;;;6.30;80.90;;;;;;4957844;28;92425;-70
2021/12/20 12:03:18;;;;;;;7.07;3.53;;;6.40;80.70;;;;;;4957480;28;92481;-70
2021/12/20 12:05:52;;;;;;;5.13;3.90;;;6.40;80.50;;;;;;4955986;28;96790;-70
2021/12/20 12:08:49;;;;;;;8.90;4.22;;;6.50;80.20;;;;;;4957386;28;95195;-70
2021/12/20 12:11:16;;;;;;;8.10;3.40;;;6.60;79.70;;;;;;4957524;28;92587;-78
2021/12/20 12:14:23;;;;;;;10.57;4.10;;;6.60;79.40;;;;;;4957596;28;92446;-78
2021/12/20 12:17:03;;;;;;;8.65;3.78;;;6.70;79.10;;;;;;4956530;28;93171;-78
2021/12/20 12:19:52;;;;;;;10.27;4.93;;;6.80;78.80;;;;;;4956727;28;92650;-78
2021/12/20 12:22:34;;;;;;;11.30;4.10;;;6.80;77.20;;;;;;4957261;28;92425;-78
2021/12/20 12:25:08;;;;;;;8.02;3.60;;;6.90;76.50;;;;;;4957449;28;91643;-70
2021/12/20 12:27:38;;;;;;;7.05;3.80;;;6.90;74.70;;;;;;4956020;28;93200;-70
2021/12/20 12:30:14;;;;;;;9.48;4.35;;;7.00;74.40;;;;;;4956788;28;92683;-70
2021/12/20 12:32:48;;;;;;;11.95;5.07;;;7.00;73.70;;;;;;4955248;28;94852;-70
2021/12/20 12:35:37;;;;;;;7.63;4.30;;;7.10;73.30;;;;;;4957119;28;92446;-70
2021/12/20 12:38:17;;;;;;;3.65;1.85;;;7.10;72.40;;;;;;4956722;28;93071;-70
2021/12/20 12:40:48;;;;;;;6.63;2.13;;;7.20;71.10;;;;;;4956640;28;92718;-70
2021/12/20 12:43:21;;;;;;;4.68;1.70;;;7.20;68.70;;;;;;4957123;28;92349;-70
2021/12/20 12:45:55;;;;;;;6.90;2.53;;;7.20;68.10;;;;;;4957054;28;92405;-70
2021/12/20 12:48:43;;;;;;;5.50;2.65;;;7.20;67.20;;;;;;4956933;28;92969;-70
2021/12/20 12:51:19;;;;;;;4.60;2.17;;;7.30;66.70;;;;;;4955409;28;94128;-70
2021/12/20 12:53:51;;;;;;;7.55;1.80;;;7.30;67.10;;;;;;4956577;28;92503;-69
2021/12/20 12:56:26;;;;;;;5.18;2.40;;;7.30;66.60;;;;;;4956652;28;92447;-70
2021/12/20 12:59:12;;;;;;;8.20;2.90;;;7.30;65.70;;;;;;4953942;28;96586;-69
2021/12/20 13:01:47;;;;;;;8.85;2.50;;;7.40;65.20;;;;;;4956816;28;95132;-69
2021/12/20 13:04:15;;;;;;;6.13;2.50;;;7.40;65.60;;;;;;4955002;28;92465;-70
2021/12/20 13:06:42;;;;;;;6.28;2.03;;;7.40;64.60;;;;;;4955932;28;107501;-70
2021/12/20 13:09:09;;;;;;;7.47;2.42;;;7.40;64.70;;;;;;4955103;28;95288;-70
2021/12/20 13:11:36;;;;;;;4.63;2.20;;;7.40;64.80;;;;;;4956431;28;92530;-70
2021/12/20 13:14:13;;;;;;;8.90;2.25;;;7.50;64.90;;;;;;4955393;28;92819;-70
2021/12/20 13:17:02;;;;;;;5.45;2.20;;;7.50;65.10;;;;;;4957048;28;92038;-69
2021/12/20 13:19:32;;;;;;;4.07;1.85;;;7.50;64.00;;;;;;4956301;28;93301;-78